CFF3 weather

Jean Lake Airport
Jean Lake, Alberta, Canada

Public forecast

Using degrees Celsius for public forecast. Weather courtesy of forecast.io.

METAR (pilot weather report)

Closest report is Fort McMurray Airport, 100.1 nm (185.4 km) ESE. Retrieved 2019/08/18 18:12 UTC (40 minutes ago):

CYMM 181812Z AUTO 32010KT 9SM FEW018 BKN026 BKN039 OVC055 12/08 A2973 RMK SLP082 DENSITY ALT 1300FT

TAF (pilot weather forecast)

Closest forecast is Fort McMurray Airport, 100.1 nm (185.4 km) ESE. Retrieved 2019/08/18 19:39 UTC (0 seconds ago):

TAF CYMM 181838Z 1819/1907 33010KT P6SM BKN030 TEMPO 1819/1902 P6SM -SHRA OVC020 FM190300 29006KT P6SM BKN040 RMK FCST BASED ON AUTO OBS. NXT FCST BY 190100Z